Oceana Naval Air Station, VA

12:24 PM EDT on August 28, 2015 (GMT -0400)
Oceana Naval Air Station | | Change Station
CLOSE
Current Station
Airport
Location: Oceana NAS,
Elevation: 23 ft
Nearby Weather Stations

Elev 23 ft 36.82 °N, 76.03 °W | Updated 28 minutes ago

Scattered Clouds
Scattered Clouds
83 °F
Feels Like 82 °F
N
13
Wind Variable Wind from NNE

Today
High -- | Low -- °F
--% Chance of Precip.
Yesterday
High -- | Low -- °F
Precip. -- in
6:31 AM 7:38 PM
Waxing Gibbous, 98% visible
Pressure 30.20 in
Visibility 10.0 miles
Clouds Few 8000 ft
Scattered Clouds 25000 ft
Heat Index 82 °F
Dew Point 56 °F
Humidity 39%
Rainfall 0.00 in
Snow Depth Not available.
UV 7 out of 12
Pollen 9.30 out of 12
Air Quality Not available.
Flu Activity Not available.
METAR KNTU 281556Z 03011KT 10SM FEW080 SCT250 28/13 A3020 RMK AO2 SLP227 T02830133
Pressure 30.20 in
Visibility 10.0 miles
Clouds Few 8000 ft
Scattered Clouds 25000 ft
Heat Index 82 °F
Dew Point 56 °F
Humidity 39%
Rainfall 0.00 in
Snow Depth Not available.
UV 7 out of 12
Pollen 9.30 out of 12
Air Quality Not available.
Flu Activity Not available.
METAR KNTU 281556Z 03011KT 10SM FEW080 SCT250 28/13 A3020 RMK AO2 SLP227 T02830133

10-Day Weather Forecast

×

Almanac

Astronomy

Aug. 28, 2015 Rise Set
Actual Time
Civil Twilight
Nautical Twilight
Astronomical Twilight
Moon
Length of Visible Light
Length of Day
Tomorrow will be .
, % of the Moon is Illuminated

Today's Extremes

State Highs State Lows

Community

WunderPhotos

Upload Photos

1,850,417 photos uploaded!

WunderBlogs® & News

Nearby

Air Quality

  Air Quality AQ Index Pollutant
Not available.

Snow Depth

Station Depth Elevation

Earthquake Activity

City Distance Mag. Time & Date
Minimum magnitude displayed is 2.5.

Coastal Water Temperatures

Place Temperature

Stations

Nearby Weather Stations

Station Location Temp. Windchill Dew Point Humidity Wind Precip. Elev Updated Type